sensor_id;sensor_type;location;lat;lon;timestamp;temperature;humidity
15483;DHT22;7843;50.330;7.312;2023-07-20T00:01:29;15.40;94.80
15483;DHT22;7843;50.330;7.312;2023-07-20T00:03:56;15.30;95.10
15483;DHT22;7843;50.330;7.312;2023-07-20T00:06:26;15.30;95.00
15483;DHT22;7843;50.330;7.312;2023-07-20T00:08:54;15.20;95.30
15483;DHT22;7843;50.330;7.312;2023-07-20T00:11:26;15.20;95.40
15483;DHT22;7843;50.330;7.312;2023-07-20T00:13:52;15.20;95.30
15483;DHT22;7843;50.330;7.312;2023-07-20T00:16:19;15.20;95.40
15483;DHT22;7843;50.330;7.312;2023-07-20T00:18:46;15.20;95.40
15483;DHT22;7843;50.330;7.312;2023-07-20T00:21:13;15.30;95.80
15483;DHT22;7843;50.330;7.312;2023-07-20T00:23:39;15.30;95.50
15483;DHT22;7843;50.330;7.312;2023-07-20T00:26:06;15.40;95.00
15483;DHT22;7843;50.330;7.312;2023-07-20T00:28:33;15.40;95.00
15483;DHT22;7843;50.330;7.312;2023-07-20T00:31:00;15.50;94.20
15483;DHT22;7843;50.330;7.312;2023-07-20T00:33:27;15.50;94.40
15483;DHT22;7843;50.330;7.312;2023-07-20T00:35:54;15.50;94.70
15483;DHT22;7843;50.330;7.312;2023-07-20T00:38:20;15.50;94.70
15483;DHT22;7843;50.330;7.312;2023-07-20T00:40:47;15.60;94.80
15483;DHT22;7843;50.330;7.312;2023-07-20T00:43:15;15.60;94.30
15483;DHT22;7843;50.330;7.312;2023-07-20T00:45:43;15.70;94.50
15483;DHT22;7843;50.330;7.312;2023-07-20T00:48:10;15.70;94.40
15483;DHT22;7843;50.330;7.312;2023-07-20T00:50:38;15.70;94.60
15483;DHT22;7843;50.330;7.312;2023-07-20T00:53:06;15.70;94.20
15483;DHT22;7843;50.330;7.312;2023-07-20T00:55:34;15.70;94.40
15483;DHT22;7843;50.330;7.312;2023-07-20T00:58:01;15.70;94.30
15483;DHT22;7843;50.330;7.312;2023-07-20T01:00:28;15.70;94.30
15483;DHT22;7843;50.330;7.312;2023-07-20T01:02:54;15.70;94.50
15483;DHT22;7843;50.330;7.312;2023-07-20T01:05:26;15.70;94.60
15483;DHT22;7843;50.330;7.312;2023-07-20T01:11:06;15.70;94.60
15483;DHT22;7843;50.330;7.312;2023-07-20T01:13:37;15.70;95.00
15483;DHT22;7843;50.330;7.312;2023-07-20T01:16:04;15.70;94.80
15483;DHT22;7843;50.330;7.312;2023-07-20T01:18:30;15.80;95.00
15483;DHT22;7843;50.330;7.312;2023-07-20T01:21:04;15.80;94.80
15483;DHT22;7843;50.330;7.312;2023-07-20T01:26:39;15.80;94.80
15483;DHT22;7843;50.330;7.312;2023-07-20T01:29:42;15.80;94.80
15483;DHT22;7843;50.330;7.312;2023-07-20T01:32:10;15.80;94.80
15483;DHT22;7843;50.330;7.312;2023-07-20T01:34:39;15.80;95.20
15483;DHT22;7843;50.330;7.312;2023-07-20T01:37:06;15.70;95.00
15483;DHT22;7843;50.330;7.312;2023-07-20T01:39:34;15.80;94.60
15483;DHT22;7843;50.330;7.312;2023-07-20T01:42:01;15.80;94.80
15483;DHT22;7843;50.330;7.312;2023-07-20T01:44:28;15.80;95.00
15483;DHT22;7843;50.330;7.312;2023-07-20T01:46:56;15.80;94.80
15483;DHT22;7843;50.330;7.312;2023-07-20T01:49:22;15.70;94.80
15483;DHT22;7843;50.330;7.312;2023-07-20T01:51:49;15.70;95.00
15483;DHT22;7843;50.330;7.312;2023-07-20T01:54:16;15.70;94.80
15483;DHT22;7843;50.330;7.312;2023-07-20T01:56:43;15.70;95.20
15483;DHT22;7843;50.330;7.312;2023-07-20T01:59:10;15.70;95.30
15483;DHT22;7843;50.330;7.312;2023-07-20T02:01:36;15.70;95.30
15483;DHT22;7843;50.330;7.312;2023-07-20T02:04:03;15.70;95.30
15483;DHT22;7843;50.330;7.312;2023-07-20T02:06:31;15.70;95.70
15483;DHT22;7843;50.330;7.312;2023-07-20T02:08:58;15.70;95.30
15483;DHT22;7843;50.330;7.312;2023-07-20T02:11:25;15.70;95.50
15483;DHT22;7843;50.330;7.312;2023-07-20T02:13:52;15.70;95.70
15483;DHT22;7843;50.330;7.312;2023-07-20T02:16:18;15.60;95.60
15483;DHT22;7843;50.330;7.312;2023-07-20T02:18:45;15.60;95.60
15483;DHT22;7843;50.330;7.312;2023-07-20T02:21:12;15.60;95.90
15483;DHT22;7843;50.330;7.312;2023-07-20T02:23:39;15.60;96.20
15483;DHT22;7843;50.330;7.312;2023-07-20T02:26:05;15.60;95.80
15483;DHT22;7843;50.330;7.312;2023-07-20T02:28:32;15.60;95.80
15483;DHT22;7843;50.330;7.312;2023-07-20T02:30:59;15.60;96.00
15483;DHT22;7843;50.330;7.312;2023-07-20T02:33:27;15.70;95.80
15483;DHT22;7843;50.330;7.312;2023-07-20T02:35:53;15.70;95.80
15483;DHT22;7843;50.330;7.312;2023-07-20T02:38:20;15.70;95.70
15483;DHT22;7843;50.330;7.312;2023-07-20T02:40:47;15.60;95.90
15483;DHT22;7843;50.330;7.312;2023-07-20T02:43:13;15.60;96.10
15483;DHT22;7843;50.330;7.312;2023-07-20T02:45:40;15.60;96.50
15483;DHT22;7843;50.330;7.312;2023-07-20T02:48:09;15.60;96.60
15483;DHT22;7843;50.330;7.312;2023-07-20T02:50:36;15.60;96.50
15483;DHT22;7843;50.330;7.312;2023-07-20T02:53:03;15.60;96.30
15483;DHT22;7843;50.330;7.312;2023-07-20T02:55:29;15.60;96.40
15483;DHT22;7843;50.330;7.312;2023-07-20T02:57:56;15.60;96.40
15483;DHT22;7843;50.330;7.312;2023-07-20T03:00:22;15.50;96.50
15483;DHT22;7843;50.330;7.312;2023-07-20T03:02:52;15.40;96.70
15483;DHT22;7843;50.330;7.312;2023-07-20T03:05:22;15.50;96.70
15483;DHT22;7843;50.330;7.312;2023-07-20T03:07:51;15.40;96.90
15483;DHT22;7843;50.330;7.312;2023-07-20T03:10:18;15.30;97.10
15483;DHT22;7843;50.330;7.312;2023-07-20T03:12:45;15.30;97.10
15483;DHT22;7843;50.330;7.312;2023-07-20T03:15:11;15.20;97.20
15483;DHT22;7843;50.330;7.312;2023-07-20T03:17:38;15.10;97.30
15483;DHT22;7843;50.330;7.312;2023-07-20T03:20:05;15.00;97.50
15483;DHT22;7843;50.330;7.312;2023-07-20T03:22:35;15.00;97.30
15483;DHT22;7843;50.330;7.312;2023-07-20T03:25:02;14.90;97.20
15483;DHT22;7843;50.330;7.312;2023-07-20T03:27:31;14.90;97.60
15483;DHT22;7843;50.330;7.312;2023-07-20T03:29:57;14.80;97.30
15483;DHT22;7843;50.330;7.312;2023-07-20T03:32:24;14.70;97.30
15483;DHT22;7843;50.330;7.312;2023-07-20T03:34:51;14.60;97.70
15483;DHT22;7843;50.330;7.312;2023-07-20T03:37:17;14.60;97.80
15483;DHT22;7843;50.330;7.312;2023-07-20T03:39:44;14.60;98.00
15483;DHT22;7843;50.330;7.312;2023-07-20T03:42:11;14.60;97.80
15483;DHT22;7843;50.330;7.312;2023-07-20T03:44:37;14.60;97.90
15483;DHT22;7843;50.330;7.312;2023-07-20T03:47:05;14.50;97.90
15483;DHT22;7843;50.330;7.312;2023-07-20T03:49:33;14.50;98.40
15483;DHT22;7843;50.330;7.312;2023-07-20T03:52:00;14.60;98.50
15483;DHT22;7843;50.330;7.312;2023-07-20T03:54:26;14.60;98.80
15483;DHT22;7843;50.330;7.312;2023-07-20T03:56:53;14.70;99.00
15483;DHT22;7843;50.330;7.312;2023-07-20T03:59:20;14.70;99.10
15483;DHT22;7843;50.330;7.312;2023-07-20T04:01:47;14.70;99.10
15483;DHT22;7843;50.330;7.312;2023-07-20T04:04:16;14.80;99.10
15483;DHT22;7843;50.330;7.312;2023-07-20T04:06:43;14.80;99.20
15483;DHT22;7843;50.330;7.312;2023-07-20T04:09:13;14.90;98.70
15483;DHT22;7843;50.330;7.312;2023-07-20T04:11:40;14.90;98.60
15483;DHT22;7843;50.330;7.312;2023-07-20T04:14:07;14.90;98.80
15483;DHT22;7843;50.330;7.312;2023-07-20T04:16:33;14.80;98.90
15483;DHT22;7843;50.330;7.312;2023-07-20T04:19:00;14.80;99.10
15483;DHT22;7843;50.330;7.312;2023-07-20T04:21:27;14.70;99.20
15483;DHT22;7843;50.330;7.312;2023-07-20T04:23:54;14.70;99.40
15483;DHT22;7843;50.330;7.312;2023-07-20T04:26:21;14.70;99.50
15483;DHT22;7843;50.330;7.312;2023-07-20T04:28:48;14.70;99.40
15483;DHT22;7843;50.330;7.312;2023-07-20T04:31:16;14.70;99.40
15483;DHT22;7843;50.330;7.312;2023-07-20T04:33:43;14.70;99.20
15483;DHT22;7843;50.330;7.312;2023-07-20T04:36:10;14.70;99.50
15483;DHT22;7843;50.330;7.312;2023-07-20T04:38:36;14.80;99.60
15483;DHT22;7843;50.330;7.312;2023-07-20T04:41:03;14.90;99.50
15483;DHT22;7843;50.330;7.312;2023-07-20T04:43:30;14.90;99.20
15483;DHT22;7843;50.330;7.312;2023-07-20T04:45:57;14.90;99.30
15483;DHT22;7843;50.330;7.312;2023-07-20T04:48:24;14.90;99.20
15483;DHT22;7843;50.330;7.312;2023-07-20T04:50:51;14.90;99.20
15483;DHT22;7843;50.330;7.312;2023-07-20T04:53:18;14.90;99.50
15483;DHT22;7843;50.330;7.312;2023-07-20T04:55:49;14.90;99.50
15483;DHT22;7843;50.330;7.312;2023-07-20T04:58:21;15.00;99.50
15483;DHT22;7843;50.330;7.312;2023-07-20T05:00:49;15.10;99.50
15483;DHT22;7843;50.330;7.312;2023-07-20T05:03:16;15.10;99.70
15483;DHT22;7843;50.330;7.312;2023-07-20T05:05:43;15.20;99.50
15483;DHT22;7843;50.330;7.312;2023-07-20T05:08:10;15.40;99.30
15483;DHT22;7843;50.330;7.312;2023-07-20T05:10:37;15.50;98.80
15483;DHT22;7843;50.330;7.312;2023-07-20T05:13:04;15.70;98.40
15483;DHT22;7843;50.330;7.312;2023-07-20T05:15:33;15.70;97.50
15483;DHT22;7843;50.330;7.312;2023-07-20T05:18:00;15.70;97.40
15483;DHT22;7843;50.330;7.312;2023-07-20T05:20:27;15.80;97.70
15483;DHT22;7843;50.330;7.312;2023-07-20T05:22:53;15.90;97.50
15483;DHT22;7843;50.330;7.312;2023-07-20T05:25:20;16.00;97.00
15483;DHT22;7843;50.330;7.312;2023-07-20T05:27:49;16.20;97.00
15483;DHT22;7843;50.330;7.312;2023-07-20T05:30:17;16.30;96.60
15483;DHT22;7843;50.330;7.312;2023-07-20T05:32:43;16.50;96.50
15483;DHT22;7843;50.330;7.312;2023-07-20T05:35:12;16.70;95.20
15483;DHT22;7843;50.330;7.312;2023-07-20T05:37:39;16.90;94.40
15483;DHT22;7843;50.330;7.312;2023-07-20T05:40:06;17.10;94.20
15483;DHT22;7843;50.330;7.312;2023-07-20T05:42:34;17.20;93.70
15483;DHT22;7843;50.330;7.312;2023-07-20T05:45:01;17.30;93.10
15483;DHT22;7843;50.330;7.312;2023-07-20T05:47:27;17.30;92.80
15483;DHT22;7843;50.330;7.312;2023-07-20T05:49:55;17.30;92.90
15483;DHT22;7843;50.330;7.312;2023-07-20T05:52:22;17.30;93.40
15483;DHT22;7843;50.330;7.312;2023-07-20T05:54:49;17.20;92.60
15483;DHT22;7843;50.330;7.312;2023-07-20T05:57:15;17.10;93.30
15483;DHT22;7843;50.330;7.312;2023-07-20T05:59:42;17.20;93.20
15483;DHT22;7843;50.330;7.312;2023-07-20T06:02:11;17.30;93.40
15483;DHT22;7843;50.330;7.312;2023-07-20T06:04:39;17.40;92.60
15483;DHT22;7843;50.330;7.312;2023-07-20T06:07:06;17.60;92.30
15483;DHT22;7843;50.330;7.312;2023-07-20T06:09:34;17.70;91.30
15483;DHT22;7843;50.330;7.312;2023-07-20T06:12:01;17.80;91.50
15483;DHT22;7843;50.330;7.312;2023-07-20T06:14:28;17.80;90.60
15483;DHT22;7843;50.330;7.312;2023-07-20T06:16:55;17.90;91.40
15483;DHT22;7843;50.330;7.312;2023-07-20T06:19:22;17.90;90.10
15483;DHT22;7843;50.330;7.312;2023-07-20T06:21:49;18.00;90.20
15483;DHT22;7843;50.330;7.312;2023-07-20T06:24:19;18.00;90.30
15483;DHT22;7843;50.330;7.312;2023-07-20T06:26:45;18.10;90.30
15483;DHT22;7843;50.330;7.312;2023-07-20T06:29:12;18.20;90.90
15483;DHT22;7843;50.330;7.312;2023-07-20T06:31:39;18.40;89.40
15483;DHT22;7843;50.330;7.312;2023-07-20T06:34:06;18.60;89.20
15483;DHT22;7843;50.330;7.312;2023-07-20T06:36:32;18.70;88.50
15483;DHT22;7843;50.330;7.312;2023-07-20T06:38:59;18.90;88.40
15483;DHT22;7843;50.330;7.312;2023-07-20T06:41:29;19.00;87.70
15483;DHT22;7843;50.330;7.312;2023-07-20T06:43:58;18.90;88.50
15483;DHT22;7843;50.330;7.312;2023-07-20T06:46:25;18.90;87.70
15483;DHT22;7843;50.330;7.312;2023-07-20T06:48:53;18.70;87.60
15483;DHT22;7843;50.330;7.312;2023-07-20T06:51:23;18.80;89.40
15483;DHT22;7843;50.330;7.312;2023-07-20T06:53:50;18.90;88.60
15483;DHT22;7843;50.330;7.312;2023-07-20T06:56:17;19.00;88.20
15483;DHT22;7843;50.330;7.312;2023-07-20T06:58:44;19.00;87.20
15483;DHT22;7843;50.330;7.312;2023-07-20T07:01:10;18.90;87.00
15483;DHT22;7843;50.330;7.312;2023-07-20T07:03:37;18.90;87.50
15483;DHT22;7843;50.330;7.312;2023-07-20T07:06:04;18.80;87.80
15483;DHT22;7843;50.330;7.312;2023-07-20T07:08:30;18.90;89.00
15483;DHT22;7843;50.330;7.312;2023-07-20T07:10:57;18.90;89.50
15483;DHT22;7843;50.330;7.312;2023-07-20T07:13:24;18.90;88.40
15483;DHT22;7843;50.330;7.312;2023-07-20T07:15:51;18.90;88.00
15483;DHT22;7843;50.330;7.312;2023-07-20T07:18:18;18.90;88.00
15483;DHT22;7843;50.330;7.312;2023-07-20T07:20:53;18.90;89.00
15483;DHT22;7843;50.330;7.312;2023-07-20T07:23:20;18.90;88.70
15483;DHT22;7843;50.330;7.312;2023-07-20T07:25:47;18.90;87.70
15483;DHT22;7843;50.330;7.312;2023-07-20T07:28:14;18.80;88.30
15483;DHT22;7843;50.330;7.312;2023-07-20T07:30:41;18.90;87.50
15483;DHT22;7843;50.330;7.312;2023-07-20T07:33:08;18.90;87.40
15483;DHT22;7843;50.330;7.312;2023-07-20T07:35:36;19.00;87.50
15483;DHT22;7843;50.330;7.312;2023-07-20T07:38:03;19.10;87.00
15483;DHT22;7843;50.330;7.312;2023-07-20T07:40:35;19.20;86.30
15483;DHT22;7843;50.330;7.312;2023-07-20T07:43:02;19.30;84.70
15483;DHT22;7843;50.330;7.312;2023-07-20T07:45:28;19.40;84.50
15483;DHT22;7843;50.330;7.312;2023-07-20T07:47:55;19.60;84.70
15483;DHT22;7843;50.330;7.312;2023-07-20T07:50:22;19.80;84.20
15483;DHT22;7843;50.330;7.312;2023-07-20T07:52:49;20.00;83.00
15483;DHT22;7843;50.330;7.312;2023-07-20T07:55:15;20.30;82.60
15483;DHT22;7843;50.330;7.312;2023-07-20T07:57:44;20.30;81.80
15483;DHT22;7843;50.330;7.312;2023-07-20T08:00:11;20.30;82.20
15483;DHT22;7843;50.330;7.312;2023-07-20T08:02:42;20.30;81.50
15483;DHT22;7843;50.330;7.312;2023-07-20T08:05:09;20.10;80.30
15483;DHT22;7843;50.330;7.312;2023-07-20T08:07:36;20.10;81.70
15483;DHT22;7843;50.330;7.312;2023-07-20T08:10:04;20.30;80.70
15483;DHT22;7843;50.330;7.312;2023-07-20T08:12:31;20.60;81.60
15483;DHT22;7843;50.330;7.312;2023-07-20T08:14:58;20.80;80.50
15483;DHT22;7843;50.330;7.312;2023-07-20T08:17:25;21.10;80.50
15483;DHT22;7843;50.330;7.312;2023-07-20T08:19:52;21.10;76.90
15483;DHT22;7843;50.330;7.312;2023-07-20T08:22:18;21.20;78.10
15483;DHT22;7843;50.330;7.312;2023-07-20T08:24:45;21.40;78.10
15483;DHT22;7843;50.330;7.312;2023-07-20T08:27:15;21.50;77.90
15483;DHT22;7843;50.330;7.312;2023-07-20T08:29:42;21.70;75.00
15483;DHT22;7843;50.330;7.312;2023-07-20T08:32:08;21.40;76.60
15483;DHT22;7843;50.330;7.312;2023-07-20T08:34:35;21.20;76.70
15483;DHT22;7843;50.330;7.312;2023-07-20T08:37:02;21.20;76.90
15483;DHT22;7843;50.330;7.312;2023-07-20T08:39:29;21.10;77.40
15483;DHT22;7843;50.330;7.312;2023-07-20T08:41:56;21.10;77.80
15483;DHT22;7843;50.330;7.312;2023-07-20T08:44:26;21.20;77.60
15483;DHT22;7843;50.330;7.312;2023-07-20T08:46:53;21.50;77.30
15483;DHT22;7843;50.330;7.312;2023-07-20T08:49:20;21.80;76.10
15483;DHT22;7843;50.330;7.312;2023-07-20T08:51:48;21.80;75.20
15483;DHT22;7843;50.330;7.312;2023-07-20T08:54:16;22.00;74.70
15483;DHT22;7843;50.330;7.312;2023-07-20T08:56:45;22.00;73.20
15483;DHT22;7843;50.330;7.312;2023-07-20T08:59:17;22.00;74.00
15483;DHT22;7843;50.330;7.312;2023-07-20T09:01:44;21.90;74.00
15483;DHT22;7843;50.330;7.312;2023-07-20T09:04:12;22.00;75.20
15483;DHT22;7843;50.330;7.312;2023-07-20T09:06:39;22.00;74.90
15483;DHT22;7843;50.330;7.312;2023-07-20T09:09:10;22.00;74.00
15483;DHT22;7843;50.330;7.312;2023-07-20T09:11:37;21.90;74.70
15483;DHT22;7843;50.330;7.312;2023-07-20T09:14:06;22.10;74.70
15483;DHT22;7843;50.330;7.312;2023-07-20T09:16:51;22.10;74.40
15483;DHT22;7843;50.330;7.312;2023-07-20T09:19:18;22.10;72.20
15483;DHT22;7843;50.330;7.312;2023-07-20T09:21:47;22.20;74.40
15483;DHT22;7843;50.330;7.312;2023-07-20T09:24:17;22.30;72.70
15483;DHT22;7843;50.330;7.312;2023-07-20T09:26:44;22.40;73.40
15483;DHT22;7843;50.330;7.312;2023-07-20T09:29:11;22.30;71.00
15483;DHT22;7843;50.330;7.312;2023-07-20T09:31:38;22.30;72.90
15483;DHT22;7843;50.330;7.312;2023-07-20T09:34:07;22.50;74.10
15483;DHT22;7843;50.330;7.312;2023-07-20T09:36:36;22.60;71.90
15483;DHT22;7843;50.330;7.312;2023-07-20T09:39:06;22.70;71.40
15483;DHT22;7843;50.330;7.312;2023-07-20T09:41:42;22.90;72.10
15483;DHT22;7843;50.330;7.312;2023-07-20T09:44:10;22.70;70.90
15483;DHT22;7843;50.330;7.312;2023-07-20T09:46:47;22.40;72.20
15483;DHT22;7843;50.330;7.312;2023-07-20T09:49:17;22.30;73.10
15483;DHT22;7843;50.330;7.312;2023-07-20T09:51:47;22.30;71.80
15483;DHT22;7843;50.330;7.312;2023-07-20T09:54:15;22.40;72.40
15483;DHT22;7843;50.330;7.312;2023-07-20T09:56:43;22.60;70.60
15483;DHT22;7843;50.330;7.312;2023-07-20T09:59:10;22.40;69.90
15483;DHT22;7843;50.330;7.312;2023-07-20T10:01:40;22.30;72.00
15483;DHT22;7843;50.330;7.312;2023-07-20T10:04:09;22.30;72.60
15483;DHT22;7843;50.330;7.312;2023-07-20T10:06:42;22.30;70.70
15483;DHT22;7843;50.330;7.312;2023-07-20T10:09:15;22.30;69.90
15483;DHT22;7843;50.330;7.312;2023-07-20T10:11:49;22.30;71.00
15483;DHT22;7843;50.330;7.312;2023-07-20T10:14:20;22.30;71.70
15483;DHT22;7843;50.330;7.312;2023-07-20T10:16:50;22.30;72.40
15483;DHT22;7843;50.330;7.312;2023-07-20T10:19:42;22.40;70.60
15483;DHT22;7843;50.330;7.312;2023-07-20T10:22:19;22.80;72.30
15483;DHT22;7843;50.330;7.312;2023-07-20T10:24:51;23.10;69.90
15483;DHT22;7843;50.330;7.312;2023-07-20T10:27:20;23.20;68.90
15483;DHT22;7843;50.330;7.312;2023-07-20T10:29:47;23.10;68.40
15483;DHT22;7843;50.330;7.312;2023-07-20T10:32:14;23.00;68.70
15483;DHT22;7843;50.330;7.312;2023-07-20T10:34:41;22.80;68.10
15483;DHT22;7843;50.330;7.312;2023-07-20T10:37:08;22.60;69.00
15483;DHT22;7843;50.330;7.312;2023-07-20T10:39:35;22.50;70.10
15483;DHT22;7843;50.330;7.312;2023-07-20T10:42:11;22.30;71.10
15483;DHT22;7843;50.330;7.312;2023-07-20T10:44:41;22.20;68.70
15483;DHT22;7843;50.330;7.312;2023-07-20T10:47:11;22.10;69.90
15483;DHT22;7843;50.330;7.312;2023-07-20T10:49:58;22.10;68.80
15483;DHT22;7843;50.330;7.312;2023-07-20T10:52:36;22.10;68.90
15483;DHT22;7843;50.330;7.312;2023-07-20T10:55:16;22.20;69.40
15483;DHT22;7843;50.330;7.312;2023-07-20T10:57:43;22.30;71.40
15483;DHT22;7843;50.330;7.312;2023-07-20T11:00:12;22.20;70.50
15483;DHT22;7843;50.330;7.312;2023-07-20T11:02:48;22.20;70.50
15483;DHT22;7843;50.330;7.312;2023-07-20T11:05:32;22.20;72.20
15483;DHT22;7843;50.330;7.312;2023-07-20T11:08:00;22.00;71.30
15483;DHT22;7843;50.330;7.312;2023-07-20T11:10:28;21.90;72.80
15483;DHT22;7843;50.330;7.312;2023-07-20T11:13:21;21.90;72.60
15483;DHT22;7843;50.330;7.312;2023-07-20T11:18:25;21.90;71.30
15483;DHT22;7843;50.330;7.312;2023-07-20T11:20:53;22.00;71.00
15483;DHT22;7843;50.330;7.312;2023-07-20T11:23:20;22.20;72.70
15483;DHT22;7843;50.330;7.312;2023-07-20T11:25:49;22.40;71.80
15483;DHT22;7843;50.330;7.312;2023-07-20T11:28:16;22.60;71.80
15483;DHT22;7843;50.330;7.312;2023-07-20T11:30:42;22.80;70.00
15483;DHT22;7843;50.330;7.312;2023-07-20T11:33:09;22.80;69.90
15483;DHT22;7843;50.330;7.312;2023-07-20T11:35:42;22.90;70.10
15483;DHT22;7843;50.330;7.312;2023-07-20T11:38:09;23.10;67.70
15483;DHT22;7843;50.330;7.312;2023-07-20T11:40:36;23.30;69.10
15483;DHT22;7843;50.330;7.312;2023-07-20T11:43:03;23.30;68.70
15483;DHT22;7843;50.330;7.312;2023-07-20T11:45:33;23.30;66.80
15483;DHT22;7843;50.330;7.312;2023-07-20T11:47:59;23.20;68.90
15483;DHT22;7843;50.330;7.312;2023-07-20T11:50:26;23.10;69.10
15483;DHT22;7843;50.330;7.312;2023-07-20T11:52:53;23.00;67.10
15483;DHT22;7843;50.330;7.312;2023-07-20T11:55:20;22.90;69.00
15483;DHT22;7843;50.330;7.312;2023-07-20T11:58:03;23.00;68.90
15483;DHT22;7843;50.330;7.312;2023-07-20T12:00:31;23.00;68.10
15483;DHT22;7843;50.330;7.312;2023-07-20T12:02:58;22.90;70.70
15483;DHT22;7843;50.330;7.312;2023-07-20T12:05:25;22.90;67.80
15483;DHT22;7843;50.330;7.312;2023-07-20T12:07:55;22.70;67.90
15483;DHT22;7843;50.330;7.312;2023-07-20T12:10:26;22.60;70.70
15483;DHT22;7843;50.330;7.312;2023-07-20T12:12:53;22.50;71.50
15483;DHT22;7843;50.330;7.312;2023-07-20T12:15:25;22.50;71.10
15483;DHT22;7843;50.330;7.312;2023-07-20T12:17:58;22.40;70.60
15483;DHT22;7843;50.330;7.312;2023-07-20T12:20:30;22.30;71.10
15483;DHT22;7843;50.330;7.312;2023-07-20T12:23:03;22.30;70.80
15483;DHT22;7843;50.330;7.312;2023-07-20T12:25:44;22.30;70.50
15483;DHT22;7843;50.330;7.312;2023-07-20T12:28:16;22.40;70.40
15483;DHT22;7843;50.330;7.312;2023-07-20T12:30:44;22.90;70.60
15483;DHT22;7843;50.330;7.312;2023-07-20T12:33:12;24.20;68.10
15483;DHT22;7843;50.330;7.312;2023-07-20T12:35:42;25.40;63.40
15483;DHT22;7843;50.330;7.312;2023-07-20T12:38:10;26.00;62.90
15483;DHT22;7843;50.330;7.312;2023-07-20T12:40:37;26.50;61.90
15483;DHT22;7843;50.330;7.312;2023-07-20T12:43:04;26.90;61.60
15483;DHT22;7843;50.330;7.312;2023-07-20T12:45:33;26.50;60.90
15483;DHT22;7843;50.330;7.312;2023-07-20T12:47:59;25.90;62.40
15483;DHT22;7843;50.330;7.312;2023-07-20T12:50:27;25.50;62.60
15483;DHT22;7843;50.330;7.312;2023-07-20T12:52:53;25.10;63.40
15483;DHT22;7843;50.330;7.312;2023-07-20T12:55:20;24.80;63.80
15483;DHT22;7843;50.330;7.312;2023-07-20T12:57:47;24.60;65.00
15483;DHT22;7843;50.330;7.312;2023-07-20T13:00:14;24.60;65.20
15483;DHT22;7843;50.330;7.312;2023-07-20T13:02:42;24.50;66.30
15483;DHT22;7843;50.330;7.312;2023-07-20T13:05:09;24.50;65.50
15483;DHT22;7843;50.330;7.312;2023-07-20T13:07:38;24.90;65.40
15483;DHT22;7843;50.330;7.312;2023-07-20T13:10:09;25.90;63.30
15483;DHT22;7843;50.330;7.312;2023-07-20T13:12:37;27.10;62.30
15483;DHT22;7843;50.330;7.312;2023-07-20T13:15:06;27.90;59.40
15483;DHT22;7843;50.330;7.312;2023-07-20T13:17:37;27.60;59.30
15483;DHT22;7843;50.330;7.312;2023-07-20T13:20:06;26.90;59.40
15483;DHT22;7843;50.330;7.312;2023-07-20T13:22:34;26.30;61.40
15483;DHT22;7843;50.330;7.312;2023-07-20T13:25:01;25.70;61.90
15483;DHT22;7843;50.330;7.312;2023-07-20T13:27:29;25.30;63.10
15483;DHT22;7843;50.330;7.312;2023-07-20T13:29:59;25.10;63.30
15483;DHT22;7843;50.330;7.312;2023-07-20T13:32:28;24.90;63.50
15483;DHT22;7843;50.330;7.312;2023-07-20T13:34:59;24.80;64.60
15483;DHT22;7843;50.330;7.312;2023-07-20T13:37:25;24.80;64.80
15483;DHT22;7843;50.330;7.312;2023-07-20T13:39:53;25.00;63.30
15483;DHT22;7843;50.330;7.312;2023-07-20T13:42:20;25.10;63.40
15483;DHT22;7843;50.330;7.312;2023-07-20T13:44:48;25.30;63.40
15483;DHT22;7843;50.330;7.312;2023-07-20T13:47:15;25.70;63.20
15483;DHT22;7843;50.330;7.312;2023-07-20T13:49:44;25.90;63.00
15483;DHT22;7843;50.330;7.312;2023-07-20T13:52:12;26.20;62.70
15483;DHT22;7843;50.330;7.312;2023-07-20T13:54:42;26.50;61.00
15483;DHT22;7843;50.330;7.312;2023-07-20T13:57:12;27.20;61.30
15483;DHT22;7843;50.330;7.312;2023-07-20T13:59:38;27.20;60.00
15483;DHT22;7843;50.330;7.312;2023-07-20T14:02:05;26.90;59.60
15483;DHT22;7843;50.330;7.312;2023-07-20T14:04:35;26.50;61.60
15483;DHT22;7843;50.330;7.312;2023-07-20T14:07:03;26.20;61.40
15483;DHT22;7843;50.330;7.312;2023-07-20T14:09:29;26.00;60.30
15483;DHT22;7843;50.330;7.312;2023-07-20T14:11:56;25.70;61.60
15483;DHT22;7843;50.330;7.312;2023-07-20T14:14:26;25.40;61.50
15483;DHT22;7843;50.330;7.312;2023-07-20T14:16:52;25.10;62.50
15483;DHT22;7843;50.330;7.312;2023-07-20T14:19:19;24.90;62.80
15483;DHT22;7843;50.330;7.312;2023-07-20T14:21:46;24.70;64.60
15483;DHT22;7843;50.330;7.312;2023-07-20T14:24:13;24.60;64.30
15483;DHT22;7843;50.330;7.312;2023-07-20T14:26:40;24.50;64.60
15483;DHT22;7843;50.330;7.312;2023-07-20T14:29:11;24.50;65.50
15483;DHT22;7843;50.330;7.312;2023-07-20T14:31:38;24.40;65.00
15483;DHT22;7843;50.330;7.312;2023-07-20T14:34:05;24.30;66.40
15483;DHT22;7843;50.330;7.312;2023-07-20T14:36:31;24.30;65.80
15483;DHT22;7843;50.330;7.312;2023-07-20T14:38:59;24.30;65.40
15483;DHT22;7843;50.330;7.312;2023-07-20T14:41:26;24.30;64.40
15483;DHT22;7843;50.330;7.312;2023-07-20T14:43:53;24.20;64.60
15483;DHT22;7843;50.330;7.312;2023-07-20T14:46:19;24.10;65.00
15483;DHT22;7843;50.330;7.312;2023-07-20T14:48:47;24.00;64.80
15483;DHT22;7843;50.330;7.312;2023-07-20T14:51:14;23.90;65.80
15483;DHT22;7843;50.330;7.312;2023-07-20T14:53:41;23.90;64.00
15483;DHT22;7843;50.330;7.312;2023-07-20T14:56:08;24.00;65.20
15483;DHT22;7843;50.330;7.312;2023-07-20T14:58:35;24.00;64.70
15483;DHT22;7843;50.330;7.312;2023-07-20T15:01:02;24.00;65.90
15483;DHT22;7843;50.330;7.312;2023-07-20T15:03:29;24.20;65.40
15483;DHT22;7843;50.330;7.312;2023-07-20T15:05:57;24.40;64.60
15483;DHT22;7843;50.330;7.312;2023-07-20T15:08:24;24.40;63.80
15483;DHT22;7843;50.330;7.312;2023-07-20T15:10:50;24.30;65.40
15483;DHT22;7843;50.330;7.312;2023-07-20T15:13:17;24.30;65.70
15483;DHT22;7843;50.330;7.312;2023-07-20T15:15:44;24.30;64.80
15483;DHT22;7843;50.330;7.312;2023-07-20T15:18:10;24.30;64.90
15483;DHT22;7843;50.330;7.312;2023-07-20T15:20:37;24.20;65.20
15483;DHT22;7843;50.330;7.312;2023-07-20T15:23:04;24.20;65.20
15483;DHT22;7843;50.330;7.312;2023-07-20T15:25:31;24.20;65.60
15483;DHT22;7843;50.330;7.312;2023-07-20T15:27:57;24.20;64.20
15483;DHT22;7843;50.330;7.312;2023-07-20T15:30:24;24.10;64.80
15483;DHT22;7843;50.330;7.312;2023-07-20T15:32:54;24.00;65.00
15483;DHT22;7843;50.330;7.312;2023-07-20T15:35:26;24.00;65.90
15483;DHT22;7843;50.330;7.312;2023-07-20T15:37:52;24.00;65.90
15483;DHT22;7843;50.330;7.312;2023-07-20T15:40:19;24.00;65.40
15483;DHT22;7843;50.330;7.312;2023-07-20T15:42:47;24.10;64.60
15483;DHT22;7843;50.330;7.312;2023-07-20T15:45:17;24.00;64.50
15483;DHT22;7843;50.330;7.312;2023-07-20T15:47:44;24.00;64.60
15483;DHT22;7843;50.330;7.312;2023-07-20T15:50:11;24.00;64.30
15483;DHT22;7843;50.330;7.312;2023-07-20T15:52:39;24.00;64.90
15483;DHT22;7843;50.330;7.312;2023-07-20T15:55:08;24.00;64.40
15483;DHT22;7843;50.330;7.312;2023-07-20T15:57:35;23.90;64.50
15483;DHT22;7843;50.330;7.312;2023-07-20T16:00:02;23.80;64.90